sensor_id;sensor_type;location;lat;lon;timestamp;temperature;humidity
67054;SHT31;53960;51.826;5.850;2022-11-06T00:00:11;9.20;89.47
67054;SHT31;53960;51.826;5.850;2022-11-06T00:02:37;9.23;89.59
67054;SHT31;53960;51.826;5.850;2022-11-06T00:05:02;9.25;89.30
67054;SHT31;53960;51.826;5.850;2022-11-06T00:07:47;9.25;89.34
67054;SHT31;53960;51.826;5.850;2022-11-06T00:10:13;9.14;89.78
67054;SHT31;53960;51.826;5.850;2022-11-06T00:12:39;9.16;89.71
67054;SHT31;53960;51.826;5.850;2022-11-06T00:15:05;9.14;89.60
67054;SHT31;53960;51.826;5.850;2022-11-06T00:17:30;9.09;89.92
67054;SHT31;53960;51.826;5.850;2022-11-06T00:19:55;9.05;90.01
67054;SHT31;53960;51.826;5.850;2022-11-06T00:22:21;9.08;89.95
67054;SHT31;53960;51.826;5.850;2022-11-06T00:24:46;9.09;89.89
67054;SHT31;53960;51.826;5.850;2022-11-06T00:27:13;9.01;90.26
67054;SHT31;53960;51.826;5.850;2022-11-06T00:29:38;9.04;90.11
67054;SHT31;53960;51.826;5.850;2022-11-06T00:32:03;9.04;90.38
67054;SHT31;53960;51.826;5.850;2022-11-06T00:34:29;9.02;90.41
67054;SHT31;53960;51.826;5.850;2022-11-06T00:36:54;9.09;89.95
67054;SHT31;53960;51.826;5.850;2022-11-06T00:39:20;9.12;89.89
67054;SHT31;53960;51.826;5.850;2022-11-06T00:41:45;9.11;90.00
67054;SHT31;53960;51.826;5.850;2022-11-06T00:44:11;9.09;89.86
67054;SHT31;53960;51.826;5.850;2022-11-06T00:46:36;9.11;89.85
67054;SHT31;53960;51.826;5.850;2022-11-06T00:49:01;9.09;89.73
67054;SHT31;53960;51.826;5.850;2022-11-06T00:51:32;9.11;89.69
67054;SHT31;53960;51.826;5.850;2022-11-06T00:54:00;9.02;90.01
67054;SHT31;53960;51.826;5.850;2022-11-06T00:56:26;8.99;90.14
67054;SHT31;53960;51.826;5.850;2022-11-06T00:58:52;9.06;89.83
67054;SHT31;53960;51.826;5.850;2022-11-06T01:01:26;9.01;89.95
67054;SHT31;53960;51.826;5.850;2022-11-06T01:03:55;8.98;90.07
67054;SHT31;53960;51.826;5.850;2022-11-06T01:06:23;8.98;90.07
67054;SHT31;53960;51.826;5.850;2022-11-06T01:08:50;9.01;89.98
67054;SHT31;53960;51.826;5.850;2022-11-06T01:11:39;9.06;89.71
67054;SHT31;53960;51.826;5.850;2022-11-06T01:14:05;9.18;89.37
67054;SHT31;53960;51.826;5.850;2022-11-06T01:16:31;9.09;89.33
67054;SHT31;53960;51.826;5.850;2022-11-06T01:18:57;9.16;89.21
67054;SHT31;53960;51.826;5.850;2022-11-06T01:21:26;9.18;89.13
67054;SHT31;53960;51.826;5.850;2022-11-06T01:23:54;9.11;89.30
67054;SHT31;53960;51.826;5.850;2022-11-06T01:26:20;9.02;89.46
67054;SHT31;53960;51.826;5.850;2022-11-06T01:28:45;9.08;89.36
67054;SHT31;53960;51.826;5.850;2022-11-06T01:31:14;9.14;89.31
67054;SHT31;53960;51.826;5.850;2022-11-06T01:33:40;9.18;89.25
67054;SHT31;53960;51.826;5.850;2022-11-06T01:36:08;9.15;89.20
67054;SHT31;53960;51.826;5.850;2022-11-06T01:38:33;9.16;89.06
67054;SHT31;53960;51.826;5.850;2022-11-06T01:40:58;9.19;89.03
67054;SHT31;53960;51.826;5.850;2022-11-06T01:43:42;9.12;89.03
67054;SHT31;53960;51.826;5.850;2022-11-06T01:46:08;9.05;89.50
67054;SHT31;53960;51.826;5.850;2022-11-06T01:48:33;8.98;89.61
67054;SHT31;53960;51.826;5.850;2022-11-06T01:50:58;8.99;89.78
67054;SHT31;53960;51.826;5.850;2022-11-06T01:53:24;9.02;89.72
67054;SHT31;53960;51.826;5.850;2022-11-06T01:55:55;8.99;89.67
67054;SHT31;53960;51.826;5.850;2022-11-06T01:58:24;9.02;89.69
67054;SHT31;53960;51.826;5.850;2022-11-06T02:00:50;9.04;89.28
67054;SHT31;53960;51.826;5.850;2022-11-06T02:03:16;9.02;89.31
67054;SHT31;53960;51.826;5.850;2022-11-06T02:05:42;9.04;89.25
67054;SHT31;53960;51.826;5.850;2022-11-06T02:08:10;9.08;89.37
67054;SHT31;53960;51.826;5.850;2022-11-06T02:10:36;9.06;89.33
67054;SHT31;53960;51.826;5.850;2022-11-06T02:13:09;9.05;89.34
67054;SHT31;53960;51.826;5.850;2022-11-06T02:21:28;9.11;89.22
67054;SHT31;53960;51.826;5.850;2022-11-06T02:24:07;9.12;89.11
67054;SHT31;53960;51.826;5.850;2022-11-06T02:29:25;9.16;89.32
67054;SHT31;53960;51.826;5.850;2022-11-06T02:31:56;9.15;89.12
67054;SHT31;53960;51.826;5.850;2022-11-06T02:34:25;9.14;89.20
67054;SHT31;53960;51.826;5.850;2022-11-06T02:36:57;9.20;89.01
67054;SHT31;53960;51.826;5.850;2022-11-06T02:39:26;9.19;89.26
67054;SHT31;53960;51.826;5.850;2022-11-06T02:41:53;9.19;89.45
67054;SHT31;53960;51.826;5.850;2022-11-06T02:44:21;9.20;89.13
67054;SHT31;53960;51.826;5.850;2022-11-06T02:46:52;9.19;89.50
67054;SHT31;53960;51.826;5.850;2022-11-06T02:49:40;9.20;89.10
67054;SHT31;53960;51.826;5.850;2022-11-06T02:52:28;9.18;89.42
67054;SHT31;53960;51.826;5.850;2022-11-06T02:55:00;9.23;89.17
67054;SHT31;53960;51.826;5.850;2022-11-06T02:57:30;9.23;89.20
67054;SHT31;53960;51.826;5.850;2022-11-06T03:00:04;9.23;89.21
67054;SHT31;53960;51.826;5.850;2022-11-06T03:02:34;9.25;89.08
67054;SHT31;53960;51.826;5.850;2022-11-06T03:05:06;9.27;89.18
67054;SHT31;53960;51.826;5.850;2022-11-06T03:10:05;9.29;88.82
67054;SHT31;53960;51.826;5.850;2022-11-06T03:15:04;9.30;88.89
67054;SHT31;53960;51.826;5.850;2022-11-06T03:17:40;9.32;88.87
67054;SHT31;53960;51.826;5.850;2022-11-06T03:20:30;9.32;88.89
67054;SHT31;53960;51.826;5.850;2022-11-06T03:23:12;9.29;89.13
67054;SHT31;53960;51.826;5.850;2022-11-06T03:25:49;9.36;88.87
67054;SHT31;53960;51.826;5.850;2022-11-06T03:28:24;9.32;89.34
67054;SHT31;53960;51.826;5.850;2022-11-06T03:30:58;9.32;89.28
67054;SHT31;53960;51.826;5.850;2022-11-06T03:33:34;9.37;88.92
67054;SHT31;53960;51.826;5.850;2022-11-06T03:36:11;9.43;88.69
67054;SHT31;53960;51.826;5.850;2022-11-06T03:38:42;9.42;88.81
67054;SHT31;53960;51.826;5.850;2022-11-06T03:43:56;9.44;88.72
67054;SHT31;53960;51.826;5.850;2022-11-06T03:46:25;9.46;88.63
67054;SHT31;53960;51.826;5.850;2022-11-06T03:48:55;9.46;88.93
67054;SHT31;53960;51.826;5.850;2022-11-06T03:51:25;9.44;88.79
67054;SHT31;53960;51.826;5.850;2022-11-06T03:54:05;9.43;89.04
67054;SHT31;53960;51.826;5.850;2022-11-06T03:59:13;9.43;89.20
67054;SHT31;53960;51.826;5.850;2022-11-06T04:01:44;9.46;88.80
67054;SHT31;53960;51.826;5.850;2022-11-06T04:04:15;9.48;89.17
67054;SHT31;53960;51.826;5.850;2022-11-06T04:06:55;9.51;89.07
67054;SHT31;53960;51.826;5.850;2022-11-06T04:09:24;9.54;89.01
67054;SHT31;53960;51.826;5.850;2022-11-06T04:12:13;9.54;88.96
67054;SHT31;53960;51.826;5.850;2022-11-06T04:14:58;9.60;88.79
67054;SHT31;53960;51.826;5.850;2022-11-06T04:17:27;9.66;88.74
67054;SHT31;53960;51.826;5.850;2022-11-06T04:19:57;9.66;88.52
67054;SHT31;53960;51.826;5.850;2022-11-06T04:22:31;9.61;88.69
67054;SHT31;53960;51.826;5.850;2022-11-06T04:28:47;9.66;88.78
67054;SHT31;53960;51.826;5.850;2022-11-06T04:33:25;9.64;88.96
67054;SHT31;53960;51.826;5.850;2022-11-06T04:36:10;9.64;88.90
67054;SHT31;53960;51.826;5.850;2022-11-06T04:38:41;9.63;88.93
67054;SHT31;53960;51.826;5.850;2022-11-06T04:41:19;9.66;88.94
67054;SHT31;53960;51.826;5.850;2022-11-06T04:43:51;9.69;88.93
67054;SHT31;53960;51.826;5.850;2022-11-06T04:46:26;9.71;88.76
67054;SHT31;53960;51.826;5.850;2022-11-06T04:48:54;9.64;89.07
67054;SHT31;53960;51.826;5.850;2022-11-06T04:51:23;9.61;89.27
67054;SHT31;53960;51.826;5.850;2022-11-06T04:53:50;9.66;89.16
67054;SHT31;53960;51.826;5.850;2022-11-06T04:56:22;9.71;88.92
67054;SHT31;53960;51.826;5.850;2022-11-06T04:58:49;9.77;88.83
67054;SHT31;53960;51.826;5.850;2022-11-06T05:01:15;9.77;88.72
67054;SHT31;53960;51.826;5.850;2022-11-06T05:03:40;9.75;88.74
67054;SHT31;53960;51.826;5.850;2022-11-06T05:06:05;9.75;88.66
67054;SHT31;53960;51.826;5.850;2022-11-06T05:08:31;9.64;89.02
67054;SHT31;53960;51.826;5.850;2022-11-06T05:10:56;9.61;89.03
67054;SHT31;53960;51.826;5.850;2022-11-06T05:13:21;9.58;89.07
67054;SHT31;53960;51.826;5.850;2022-11-06T05:15:46;9.58;89.22
67054;SHT31;53960;51.826;5.850;2022-11-06T05:18:12;9.54;89.36
67054;SHT31;53960;51.826;5.850;2022-11-06T05:20:37;9.53;89.32
67054;SHT31;53960;51.826;5.850;2022-11-06T05:23:03;9.50;89.57
67054;SHT31;53960;51.826;5.850;2022-11-06T05:25:36;9.46;89.45
67054;SHT31;53960;51.826;5.850;2022-11-06T05:28:03;9.42;89.67
67054;SHT31;53960;51.826;5.850;2022-11-06T05:30:34;9.40;89.82
67054;SHT31;53960;51.826;5.850;2022-11-06T05:33:00;9.39;89.78
67054;SHT31;53960;51.826;5.850;2022-11-06T05:35:25;9.39;89.88
67054;SHT31;53960;51.826;5.850;2022-11-06T05:37:57;9.39;89.96
67054;SHT31;53960;51.826;5.850;2022-11-06T05:40:23;9.42;89.73
67054;SHT31;53960;51.826;5.850;2022-11-06T05:42:48;9.39;89.82
67054;SHT31;53960;51.826;5.850;2022-11-06T05:45:13;9.33;89.93
67054;SHT31;53960;51.826;5.850;2022-11-06T05:47:40;9.30;90.07
67054;SHT31;53960;51.826;5.850;2022-11-06T05:50:07;9.30;90.01
67054;SHT31;53960;51.826;5.850;2022-11-06T05:52:33;9.23;90.26
67054;SHT31;53960;51.826;5.850;2022-11-06T05:54:59;9.26;90.27
67054;SHT31;53960;51.826;5.850;2022-11-06T05:57:24;9.26;90.37
67054;SHT31;53960;51.826;5.850;2022-11-06T05:59:50;9.29;90.13
67054;SHT31;53960;51.826;5.850;2022-11-06T06:02:15;9.29;90.13
67054;SHT31;53960;51.826;5.850;2022-11-06T06:04:40;9.39;89.94
67054;SHT31;53960;51.826;5.850;2022-11-06T06:07:06;9.37;90.02
67054;SHT31;53960;51.826;5.850;2022-11-06T06:09:31;9.37;90.00
67054;SHT31;53960;51.826;5.850;2022-11-06T06:11:56;9.39;90.00
67054;SHT31;53960;51.826;5.850;2022-11-06T06:14:22;9.43;89.90
67054;SHT31;53960;51.826;5.850;2022-11-06T06:16:47;9.42;89.98
67054;SHT31;53960;51.826;5.850;2022-11-06T06:19:13;9.44;89.79
67054;SHT31;53960;51.826;5.850;2022-11-06T06:21:38;9.44;89.68
67054;SHT31;53960;51.826;5.850;2022-11-06T06:24:04;9.50;89.55
67054;SHT31;53960;51.826;5.850;2022-11-06T06:26:30;9.50;89.34
67054;SHT31;53960;51.826;5.850;2022-11-06T06:28:55;9.47;89.60
67054;SHT31;53960;51.826;5.850;2022-11-06T06:31:21;9.50;89.67
67054;SHT31;53960;51.826;5.850;2022-11-06T06:33:46;9.56;89.36
67054;SHT31;53960;51.826;5.850;2022-11-06T06:36:12;9.53;89.47
67054;SHT31;53960;51.826;5.850;2022-11-06T06:38:37;9.56;89.49
67054;SHT31;53960;51.826;5.850;2022-11-06T06:41:05;9.56;89.26
67054;SHT31;53960;51.826;5.850;2022-11-06T06:43:30;9.58;89.33
67054;SHT31;53960;51.826;5.850;2022-11-06T06:46:00;9.61;89.00
67054;SHT31;53960;51.826;5.850;2022-11-06T06:48:26;9.64;89.14
67054;SHT31;53960;51.826;5.850;2022-11-06T06:50:51;9.63;88.78
67054;SHT31;53960;51.826;5.850;2022-11-06T06:53:17;9.67;88.76
67054;SHT31;53960;51.826;5.850;2022-11-06T06:55:42;9.70;88.71
67054;SHT31;53960;51.826;5.850;2022-11-06T06:58:08;9.70;88.86
67054;SHT31;53960;51.826;5.850;2022-11-06T07:00:35;9.74;88.64
67054;SHT31;53960;51.826;5.850;2022-11-06T07:03:00;9.78;88.85
67054;SHT31;53960;51.826;5.850;2022-11-06T07:05:27;9.81;88.39
67054;SHT31;53960;51.826;5.850;2022-11-06T07:07:52;9.78;88.58
67054;SHT31;53960;51.826;5.850;2022-11-06T07:10:18;9.75;88.77
67054;SHT31;53960;51.826;5.850;2022-11-06T07:12:43;9.75;88.67
67054;SHT31;53960;51.826;5.850;2022-11-06T07:15:09;9.83;88.28
67054;SHT31;53960;51.826;5.850;2022-11-06T07:17:34;9.87;88.35
67054;SHT31;53960;51.826;5.850;2022-11-06T07:19:59;9.90;88.31
67054;SHT31;53960;51.826;5.850;2022-11-06T07:22:26;9.90;88.09
67054;SHT31;53960;51.826;5.850;2022-11-06T07:24:51;9.99;87.93
67054;SHT31;53960;51.826;5.850;2022-11-06T07:27:17;9.99;87.74
67054;SHT31;53960;51.826;5.850;2022-11-06T07:29:42;10.04;87.71
67054;SHT31;53960;51.826;5.850;2022-11-06T07:32:08;10.14;87.39
67054;SHT31;53960;51.826;5.850;2022-11-06T07:34:33;10.18;87.61
67054;SHT31;53960;51.826;5.850;2022-11-06T07:36:58;10.22;86.98
67054;SHT31;53960;51.826;5.850;2022-11-06T07:39:24;10.25;87.15
67054;SHT31;53960;51.826;5.850;2022-11-06T07:41:49;10.32;87.10
67054;SHT31;53960;51.826;5.850;2022-11-06T07:44:14;10.35;86.89
67054;SHT31;53960;51.826;5.850;2022-11-06T07:46:39;10.39;86.81
67054;SHT31;53960;51.826;5.850;2022-11-06T07:49:05;10.42;86.70
67054;SHT31;53960;51.826;5.850;2022-11-06T07:51:30;10.38;86.51
67054;SHT31;53960;51.826;5.850;2022-11-06T07:53:56;10.49;86.31
67054;SHT31;53960;51.826;5.850;2022-11-06T07:56:21;10.46;86.48
67054;SHT31;53960;51.826;5.850;2022-11-06T07:58:46;10.55;86.00
67054;SHT31;53960;51.826;5.850;2022-11-06T08:01:15;10.50;86.17
67054;SHT31;53960;51.826;5.850;2022-11-06T08:03:41;10.52;86.23
67054;SHT31;53960;51.826;5.850;2022-11-06T08:06:07;10.53;86.09
67054;SHT31;53960;51.826;5.850;2022-11-06T08:08:32;10.55;86.10
67054;SHT31;53960;51.826;5.850;2022-11-06T08:11:05;10.56;86.35
67054;SHT31;53960;51.826;5.850;2022-11-06T08:13:31;10.57;86.10
67054;SHT31;53960;51.826;5.850;2022-11-06T08:16:03;10.60;86.37
67054;SHT31;53960;51.826;5.850;2022-11-06T08:18:28;10.62;85.84
67054;SHT31;53960;51.826;5.850;2022-11-06T08:20:53;10.64;86.29
67054;SHT31;53960;51.826;5.850;2022-11-06T08:23:19;10.64;86.08
67054;SHT31;53960;51.826;5.850;2022-11-06T08:25:44;10.67;85.74
67054;SHT31;53960;51.826;5.850;2022-11-06T08:28:09;10.67;85.58
67054;SHT31;53960;51.826;5.850;2022-11-06T08:30:35;10.67;85.88
67054;SHT31;53960;51.826;5.850;2022-11-06T08:33:03;10.67;85.84
67054;SHT31;53960;51.826;5.850;2022-11-06T08:35:29;10.70;85.92
67054;SHT31;53960;51.826;5.850;2022-11-06T08:37:55;10.69;85.84
67054;SHT31;53960;51.826;5.850;2022-11-06T08:40:21;10.69;85.31
67054;SHT31;53960;51.826;5.850;2022-11-06T08:42:46;10.72;85.56
67054;SHT31;53960;51.826;5.850;2022-11-06T08:45:11;10.73;85.42
67054;SHT31;53960;51.826;5.850;2022-11-06T08:47:37;10.70;85.38
67054;SHT31;53960;51.826;5.850;2022-11-06T08:50:02;10.74;85.38
67054;SHT31;53960;51.826;5.850;2022-11-06T08:52:28;10.76;85.59
67054;SHT31;53960;51.826;5.850;2022-11-06T08:54:53;10.80;85.43
67054;SHT31;53960;51.826;5.850;2022-11-06T08:57:19;10.85;85.29
67054;SHT31;53960;51.826;5.850;2022-11-06T08:59:44;10.97;85.40
67054;SHT31;53960;51.826;5.850;2022-11-06T09:02:11;11.06;84.87
67054;SHT31;53960;51.826;5.850;2022-11-06T09:04:37;11.07;85.03
67054;SHT31;53960;51.826;5.850;2022-11-06T09:07:02;11.11;84.60
67054;SHT31;53960;51.826;5.850;2022-11-06T09:09:27;11.17;84.64
67054;SHT31;53960;51.826;5.850;2022-11-06T09:11:57;11.15;84.92
67054;SHT31;53960;51.826;5.850;2022-11-06T09:14:23;11.23;84.39
67054;SHT31;53960;51.826;5.850;2022-11-06T09:16:49;11.27;84.40
67054;SHT31;53960;51.826;5.850;2022-11-06T09:19:14;11.35;84.02
67054;SHT31;53960;51.826;5.850;2022-11-06T09:21:39;11.34;83.98
67054;SHT31;53960;51.826;5.850;2022-11-06T09:24:05;11.38;83.93
67054;SHT31;53960;51.826;5.850;2022-11-06T09:26:30;11.35;84.06
67054;SHT31;53960;51.826;5.850;2022-11-06T09:28:55;11.41;83.65
67054;SHT31;53960;51.826;5.850;2022-11-06T09:31:21;11.41;83.73
67054;SHT31;53960;51.826;5.850;2022-11-06T09:33:46;11.35;83.94
67054;SHT31;53960;51.826;5.850;2022-11-06T09:36:11;11.35;83.79
67054;SHT31;53960;51.826;5.850;2022-11-06T09:38:37;11.41;83.63
67054;SHT31;53960;51.826;5.850;2022-11-06T09:41:03;11.46;83.86
67054;SHT31;53960;51.826;5.850;2022-11-06T09:43:39;11.48;83.70
67054;SHT31;53960;51.826;5.850;2022-11-06T09:48:54;11.54;83.34
67054;SHT31;53960;51.826;5.850;2022-11-06T09:51:36;11.55;82.62
67054;SHT31;53960;51.826;5.850;2022-11-06T09:54:11;11.59;82.93
67054;SHT31;53960;51.826;5.850;2022-11-06T09:56:39;11.68;82.61
67054;SHT31;53960;51.826;5.850;2022-11-06T09:59:10;11.72;82.12
67054;SHT31;53960;51.826;5.850;2022-11-06T10:04:26;11.86;81.99
67054;SHT31;53960;51.826;5.850;2022-11-06T10:06:52;11.86;81.39
67054;SHT31;53960;51.826;5.850;2022-11-06T10:09:18;11.89;81.52
67054;SHT31;53960;51.826;5.850;2022-11-06T10:11:57;11.85;81.79
67054;SHT31;53960;51.826;5.850;2022-11-06T10:14:33;11.75;81.94
67054;SHT31;53960;51.826;5.850;2022-11-06T10:19:47;11.71;81.92
67054;SHT31;53960;51.826;5.850;2022-11-06T10:22:22;11.72;81.30
67054;SHT31;53960;51.826;5.850;2022-11-06T10:25:00;11.76;81.98
67054;SHT31;53960;51.826;5.850;2022-11-06T10:27:38;11.90;81.29
67054;SHT31;53960;51.826;5.850;2022-11-06T10:30:10;11.97;80.93
67054;SHT31;53960;51.826;5.850;2022-11-06T10:38:13;12.29;80.00
67054;SHT31;53960;51.826;5.850;2022-11-06T10:40:43;12.37;80.04
67054;SHT31;53960;51.826;5.850;2022-11-06T10:43:23;12.48;79.70
67054;SHT31;53960;51.826;5.850;2022-11-06T10:45:55;12.45;79.51
67054;SHT31;53960;51.826;5.850;2022-11-06T10:48:26;12.44;79.29
67054;SHT31;53960;51.826;5.850;2022-11-06T10:51:16;12.44;79.35
67054;SHT31;53960;51.826;5.850;2022-11-06T10:59:15;12.33;79.38
67054;SHT31;53960;51.826;5.850;2022-11-06T11:01:40;12.19;79.62
67054;SHT31;53960;51.826;5.850;2022-11-06T11:04:05;12.17;79.94
67054;SHT31;53960;51.826;5.850;2022-11-06T11:06:31;12.14;80.08
67054;SHT31;53960;51.826;5.850;2022-11-06T11:08:56;12.12;79.69
67054;SHT31;53960;51.826;5.850;2022-11-06T11:11:23;12.13;79.47
67054;SHT31;53960;51.826;5.850;2022-11-06T11:16:24;12.10;79.64
67054;SHT31;53960;51.826;5.850;2022-11-06T11:18:51;12.14;79.62
67054;SHT31;53960;51.826;5.850;2022-11-06T11:21:26;12.20;79.48
67054;SHT31;53960;51.826;5.850;2022-11-06T11:26:30;12.23;79.50
67054;SHT31;53960;51.826;5.850;2022-11-06T11:28:58;12.21;78.39
67054;SHT31;53960;51.826;5.850;2022-11-06T11:31:33;12.24;78.39
67054;SHT31;53960;51.826;5.850;2022-11-06T11:34:02;12.29;78.35
67054;SHT31;53960;51.826;5.850;2022-11-06T11:36:49;12.30;77.88
67054;SHT31;53960;51.826;5.850;2022-11-06T11:39:16;12.26;77.49
67054;SHT31;53960;51.826;5.850;2022-11-06T11:41:42;12.41;77.67
67054;SHT31;53960;51.826;5.850;2022-11-06T11:49:30;12.54;75.22
67054;SHT31;53960;51.826;5.850;2022-11-06T11:52:00;12.57;75.42
67054;SHT31;53960;51.826;5.850;2022-11-06T11:54:30;12.57;75.55
67054;SHT31;53960;51.826;5.850;2022-11-06T11:57:01;12.52;76.08
67054;SHT31;53960;51.826;5.850;2022-11-06T12:02:16;12.54;76.19
67054;SHT31;53960;51.826;5.850;2022-11-06T12:04:44;12.58;76.49
67054;SHT31;53960;51.826;5.850;2022-11-06T12:07:22;12.64;75.77
67054;SHT31;53960;51.826;5.850;2022-11-06T12:09:49;12.64;76.04
67054;SHT31;53960;51.826;5.850;2022-11-06T12:15:26;12.55;76.07
67054;SHT31;53960;51.826;5.850;2022-11-06T12:17:56;12.51;76.03
67054;SHT31;53960;51.826;5.850;2022-11-06T12:20:41;12.48;76.13
67054;SHT31;53960;51.826;5.850;2022-11-06T12:23:16;12.42;76.48
67054;SHT31;53960;51.826;5.850;2022-11-06T12:25:47;12.44;76.62
67054;SHT31;53960;51.826;5.850;2022-11-06T12:28:16;12.45;77.13
67054;SHT31;53960;51.826;5.850;2022-11-06T12:30:45;12.42;77.02
67054;SHT31;53960;51.826;5.850;2022-11-06T12:33:19;12.45;76.56
67054;SHT31;53960;51.826;5.850;2022-11-06T12:35:54;12.52;76.91
67054;SHT31;53960;51.826;5.850;2022-11-06T12:41:24;12.60;76.24
67054;SHT31;53960;51.826;5.850;2022-11-06T12:43:51;12.55;76.67
67054;SHT31;53960;51.826;5.850;2022-11-06T12:56:43;12.65;77.34
67054;SHT31;53960;51.826;5.850;2022-11-06T13:01:41;12.67;76.91
67054;SHT31;53960;51.826;5.850;2022-11-06T13:07:08;12.74;76.63
67054;SHT31;53960;51.826;5.850;2022-11-06T13:09:59;12.68;77.29
67054;SHT31;53960;51.826;5.850;2022-11-06T13:12:48;12.69;77.31
67054;SHT31;53960;51.826;5.850;2022-11-06T13:15:24;12.69;77.24
67054;SHT31;53960;51.826;5.850;2022-11-06T13:17:59;12.71;76.53
67054;SHT31;53960;51.826;5.850;2022-11-06T13:20:56;12.67;75.52
67054;SHT31;53960;51.826;5.850;2022-11-06T13:23:28;12.69;75.59
67054;SHT31;53960;51.826;5.850;2022-11-06T13:28:47;12.81;74.90
67054;SHT31;53960;51.826;5.850;2022-11-06T13:31:16;12.85;75.50
67054;SHT31;53960;51.826;5.850;2022-11-06T13:33:47;12.79;73.85
67054;SHT31;53960;51.826;5.850;2022-11-06T13:36:14;12.69;72.87
67054;SHT31;53960;51.826;5.850;2022-11-06T13:38:59;12.68;71.75
67054;SHT31;53960;51.826;5.850;2022-11-06T13:41:29;12.64;72.23
67054;SHT31;53960;51.826;5.850;2022-11-06T13:44:00;12.57;72.68
67054;SHT31;53960;51.826;5.850;2022-11-06T13:51:59;12.40;72.78
67054;SHT31;53960;51.826;5.850;2022-11-06T14:00:11;12.29;73.30
67054;SHT31;53960;51.826;5.850;2022-11-06T14:08:22;12.21;74.33
67054;SHT31;53960;51.826;5.850;2022-11-06T14:11:02;12.12;73.59
67054;SHT31;53960;51.826;5.850;2022-11-06T14:13:32;12.09;74.33
67054;SHT31;53960;51.826;5.850;2022-11-06T14:16:01;12.02;75.13
67054;SHT31;53960;51.826;5.850;2022-11-06T14:18:27;11.97;74.63
67054;SHT31;53960;51.826;5.850;2022-11-06T14:24:13;11.86;75.88
67054;SHT31;53960;51.826;5.850;2022-11-06T14:26:47;11.75;76.74
67054;SHT31;53960;51.826;5.850;2022-11-06T14:34:46;11.36;79.00
67054;SHT31;53960;51.826;5.850;2022-11-06T14:45:09;11.03;83.17
67054;SHT31;53960;51.826;5.850;2022-11-06T14:47:40;10.93;82.66
67054;SHT31;53960;51.826;5.850;2022-11-06T14:53:23;10.77;82.80
67054;SHT31;53960;51.826;5.850;2022-11-06T14:55:58;10.66;82.36
67054;SHT31;53960;51.826;5.850;2022-11-06T14:58:25;10.56;83.41
67054;SHT31;53960;51.826;5.850;2022-11-06T15:00:55;10.45;83.39
67054;SHT31;53960;51.826;5.850;2022-11-06T15:03:35;10.43;83.60
67054;SHT31;53960;51.826;5.850;2022-11-06T15:06:19;10.45;83.84
67054;SHT31;53960;51.826;5.850;2022-11-06T15:16:26;10.24;85.48
67054;SHT31;53960;51.826;5.850;2022-11-06T15:18:52;10.25;85.76
67054;SHT31;53960;51.826;5.850;2022-11-06T15:21:23;10.22;85.95
67054;SHT31;53960;51.826;5.850;2022-11-06T15:24:00;10.16;86.37
67054;SHT31;53960;51.826;5.850;2022-11-06T15:26:32;10.12;86.50
67054;SHT31;53960;51.826;5.850;2022-11-06T15:29:15;10.01;86.74
67054;SHT31;53960;51.826;5.850;2022-11-06T15:31:44;9.90;87.71
67054;SHT31;53960;51.826;5.850;2022-11-06T15:34:15;9.85;86.62
67054;SHT31;53960;51.826;5.850;2022-11-06T15:36:48;9.77;85.43
67054;SHT31;53960;51.826;5.850;2022-11-06T15:39:32;9.75;85.93
67054;SHT31;53960;51.826;5.850;2022-11-06T15:42:06;9.64;86.27
67054;SHT31;53960;51.826;5.850;2022-11-06T15:44:37;9.61;85.84
67054;SHT31;53960;51.826;5.850;2022-11-06T15:47:03;9.44;86.44
67054;SHT31;53960;51.826;5.850;2022-11-06T15:49:29;9.42;87.51
67054;SHT31;53960;51.826;5.850;2022-11-06T15:51:59;9.39;88.01
67054;SHT31;53960;51.826;5.850;2022-11-06T15:54:33;9.37;88.33
67054;SHT31;53960;51.826;5.850;2022-11-06T15:59:37;9.27;89.12
67054;SHT31;53960;51.826;5.850;2022-11-06T16:02:08;9.22;90.18
67054;SHT31;53960;51.826;5.850;2022-11-06T16:04:36;9.27;89.94
67054;SHT31;53960;51.826;5.850;2022-11-06T16:07:02;9.19;90.55
67054;SHT31;53960;51.826;5.850;2022-11-06T16:09:30;9.14;90.91
67054;SHT31;53960;51.826;5.850;2022-11-06T16:11:55;9.12;91.46
67054;SHT31;53960;51.826;5.850;2022-11-06T16:14:22;9.09;91.21
67054;SHT31;53960;51.826;5.850;2022-11-06T16:16:50;9.08;91.39
67054;SHT31;53960;51.826;5.850;2022-11-06T16:19:36;9.01;90.64
67054;SHT31;53960;51.826;5.850;2022-11-06T16:22:17;8.99;90.64
67054;SHT31;53960;51.826;5.850;2022-11-06T16:24:53;8.96;89.46
67054;SHT31;53960;51.826;5.850;2022-11-06T16:27:19;8.96;89.89
67054;SHT31;53960;51.826;5.850;2022-11-06T16:29:53;8.96;90.56
67054;SHT31;53960;51.826;5.850;2022-11-06T16:32:22;8.95;90.53
67054;SHT31;53960;51.826;5.850;2022-11-06T16:34:48;8.91;90.43
67054;SHT31;53960;51.826;5.850;2022-11-06T16:39:48;8.85;90.21
67054;SHT31;53960;51.826;5.850;2022-11-06T16:42:32;8.84;90.26
67054;SHT31;53960;51.826;5.850;2022-11-06T16:47:26;8.89;90.28
67054;SHT31;53960;51.826;5.850;2022-11-06T16:49:53;8.82;91.16
67054;SHT31;53960;51.826;5.850;2022-11-06T16:52:23;8.84;90.62
67054;SHT31;53960;51.826;5.850;2022-11-06T16:55:01;8.82;91.26
67054;SHT31;53960;51.826;5.850;2022-11-06T16:57:57;8.86;91.39
67054;SHT31;53960;51.826;5.850;2022-11-06T17:00:26;8.79;92.42
67054;SHT31;53960;51.826;5.850;2022-11-06T17:05:23;8.82;92.12
67054;SHT31;53960;51.826;5.850;2022-11-06T17:08:20;8.82;92.15
67054;SHT31;53960;51.826;5.850;2022-11-06T17:10:50;8.85;92.28
67054;SHT31;53960;51.826;5.850;2022-11-06T17:13:20;8.84;91.95
67054;SHT31;53960;51.826;5.850;2022-11-06T17:15:48;8.88;91.60
67054;SHT31;53960;51.826;5.850;2022-11-06T17:18:21;8.84;92.14
67054;SHT31;53960;51.826;5.850;2022-11-06T17:20:58;8.86;91.95
67054;SHT31;53960;51.826;5.850;2022-11-06T17:23:25;8.86;92.23
67054;SHT31;53960;51.826;5.850;2022-11-06T17:25:53;8.86;90.88
67054;SHT31;53960;51.826;5.850;2022-11-06T17:28:20;8.85;91.78
67054;SHT31;53960;51.826;5.850;2022-11-06T17:30:47;8.79;91.93
67054;SHT31;53960;51.826;5.850;2022-11-06T17:33:13;8.78;92.33
67054;SHT31;53960;51.826;5.850;2022-11-06T17:35:39;8.75;92.00
67054;SHT31;53960;51.826;5.850;2022-11-06T17:38:05;8.78;92.32
67054;SHT31;53960;51.826;5.850;2022-11-06T17:40:30;8.75;92.31
67054;SHT31;53960;51.826;5.850;2022-11-06T17:42:56;8.74;92.47
67054;SHT31;53960;51.826;5.850;2022-11-06T17:45:21;8.77;92.43
67054;SHT31;53960;51.826;5.850;2022-11-06T17:47:47;8.74;92.90
67054;SHT31;53960;51.826;5.850;2022-11-06T17:50:12;8.78;92.03
67054;SHT31;53960;51.826;5.850;2022-11-06T17:52:38;8.77;92.14
67054;SHT31;53960;51.826;5.850;2022-11-06T17:55:03;8.77;91.85
67054;SHT31;53960;51.826;5.850;2022-11-06T17:57:30;8.77;91.73
67054;SHT31;53960;51.826;5.850;2022-11-06T17:59:55;8.82;91.87
67054;SHT31;53960;51.826;5.850;2022-11-06T18:02:21;8.81;91.31
67054;SHT31;53960;51.826;5.850;2022-11-06T18:04:46;8.79;91.49
67054;SHT31;53960;51.826;5.850;2022-11-06T18:07:13;8.86;91.28
67054;SHT31;53960;51.826;5.850;2022-11-06T18:09:38;8.84;91.31